createdAt,value
2023-03-16T00:02:11.776Z,100.00
2023-03-16T00:04:38.879Z,100.00
2023-03-16T00:07:09.819Z,100.00
2023-03-16T00:09:41.410Z,100.00
2023-03-16T00:12:19.483Z,100.00
2023-03-16T00:14:49.295Z,100.00
2023-03-16T00:17:19.876Z,100.00
2023-03-16T00:20:16.969Z,100.00
2023-03-16T00:22:45.003Z,100.00
2023-03-16T00:25:14.708Z,100.00
2023-03-16T00:27:41.632Z,100.00
2023-03-16T00:30:09.555Z,100.00
2023-03-16T00:32:37.997Z,100.00
2023-03-16T00:35:09.208Z,100.00
2023-03-16T00:37:37.954Z,100.00
2023-03-16T00:40:07.828Z,100.00
2023-03-16T00:42:34.731Z,100.00
2023-03-16T00:45:02.192Z,100.00
2023-03-16T00:47:34.164Z,100.00
2023-03-16T00:50:02.424Z,100.00
2023-03-16T00:52:30.058Z,100.00
2023-03-16T00:54:57.154Z,100.00
2023-03-16T00:57:25.981Z,100.00
2023-03-16T00:59:53.016Z,100.00
2023-03-16T01:02:23.360Z,100.00
2023-03-16T01:04:52.502Z,100.00
2023-03-16T01:07:19.722Z,100.00
2023-03-16T01:09:48.558Z,100.00
2023-03-16T01:12:19.159Z,100.00
2023-03-16T01:14:47.109Z,100.00
2023-03-16T01:17:16.387Z,100.00
2023-03-16T01:19:43.906Z,100.00
2023-03-16T01:22:12.002Z,100.00
2023-03-16T01:24:40.601Z,100.00
2023-03-16T01:27:08.918Z,100.00
2023-03-16T01:29:38.795Z,100.00
2023-03-16T01:32:07.473Z,100.00
2023-03-16T01:34:35.132Z,100.00
2023-03-16T01:37:02.056Z,100.00
2023-03-16T01:39:28.795Z,100.00
2023-03-16T01:41:55.637Z,100.00
2023-03-16T01:44:32.898Z,100.00
2023-03-16T01:47:00.000Z,100.00
2023-03-16T01:49:36.360Z,100.00
2023-03-16T01:52:12.551Z,100.00
2023-03-16T01:54:49.840Z,100.00
2023-03-16T01:57:22.258Z,100.00
2023-03-16T01:59:54.918Z,100.00
2023-03-16T02:02:25.221Z,100.00
2023-03-16T02:05:33.289Z,100.00
2023-03-16T02:08:02.706Z,100.00
2023-03-16T02:10:31.121Z,100.00
2023-03-16T02:12:58.722Z,100.00
2023-03-16T02:15:27.213Z,100.00
2023-03-16T02:18:00.082Z,100.00
2023-03-16T02:20:53.651Z,100.00
2023-03-16T02:23:24.003Z,100.00
2023-03-16T02:26:10.297Z,100.00
2023-03-16T02:29:31.964Z,100.00
2023-03-16T02:32:02.905Z,100.00
2023-03-16T02:34:30.257Z,100.00
2023-03-16T02:36:59.183Z,100.00
2023-03-16T02:39:26.112Z,100.00
2023-03-16T02:41:53.284Z,100.00
2023-03-16T02:44:37.483Z,100.00
2023-03-16T02:47:14.506Z,100.00
2023-03-16T02:49:45.372Z,100.00
2023-03-16T02:52:13.249Z,100.00
2023-03-16T02:54:40.102Z,100.00
2023-03-16T02:57:07.989Z,100.00
2023-03-16T02:59:34.820Z,100.00
2023-03-16T03:02:01.764Z,100.00
2023-03-16T03:04:28.606Z,100.00
2023-03-16T03:06:55.454Z,100.00
2023-03-16T03:09:22.341Z,100.00
2023-03-16T03:11:50.493Z,100.00
2023-03-16T03:14:17.279Z,100.00
2023-03-16T03:16:46.646Z,100.00
2023-03-16T03:19:14.042Z,100.00
2023-03-16T03:21:41.577Z,100.00
2023-03-16T03:24:09.744Z,100.00
2023-03-16T03:26:39.622Z,100.00
2023-03-16T03:29:06.534Z,100.00
2023-03-16T03:31:33.349Z,100.00
2023-03-16T03:34:06.378Z,100.00
2023-03-16T03:36:34.958Z,100.00
2023-03-16T03:39:05.024Z,100.00
2023-03-16T03:41:33.345Z,100.00
2023-03-16T03:44:00.984Z,100.00
2023-03-16T03:46:27.927Z,100.00
2023-03-16T03:48:54.939Z,100.00
2023-03-16T03:51:21.759Z,100.00
2023-03-16T03:53:48.607Z,100.00
2023-03-16T03:56:15.394Z,100.00
2023-03-16T03:58:42.124Z,100.00
2023-03-16T04:01:08.904Z,100.00
2023-03-16T04:03:35.743Z,100.00
2023-03-16T04:06:02.603Z,100.00
2023-03-16T04:08:29.638Z,100.00
2023-03-16T04:10:56.532Z,100.00
2023-03-16T04:13:23.344Z,100.00
2023-03-16T04:15:56.983Z,100.00
2023-03-16T04:18:24.189Z,100.00
2023-03-16T04:20:53.163Z,100.00
2023-03-16T04:23:21.974Z,100.00
2023-03-16T04:25:48.850Z,100.00
2023-03-16T04:28:18.118Z,100.00
2023-03-16T04:30:44.992Z,100.00
2023-03-16T04:33:11.795Z,100.00
2023-03-16T04:35:39.119Z,100.00
2023-03-16T04:38:06.068Z,100.00
2023-03-16T04:40:32.884Z,100.00
2023-03-16T04:42:59.712Z,100.00
2023-03-16T04:45:26.697Z,100.00
2023-03-16T04:47:53.502Z,100.00
2023-03-16T04:50:22.314Z,100.00
2023-03-16T04:52:49.186Z,100.00
2023-03-16T04:55:15.978Z,100.00
2023-03-16T04:57:42.774Z,100.00
2023-03-16T05:00:19.029Z,100.00
2023-03-16T05:02:48.177Z,100.00
2023-03-16T05:05:15.911Z,100.00
2023-03-16T05:07:44.128Z,100.00
2023-03-16T05:10:16.132Z,100.00
2023-03-16T05:12:42.938Z,100.00
2023-03-16T05:15:10.705Z,100.00
2023-03-16T05:17:37.893Z,100.00
2023-03-16T05:20:08.903Z,100.00
2023-03-16T05:22:35.757Z,100.00
2023-03-16T05:25:04.623Z,100.00
2023-03-16T05:27:31.524Z,100.00
2023-03-16T05:29:58.276Z,100.00
2023-03-16T05:32:25.186Z,100.00
2023-03-16T05:34:53.236Z,100.00
2023-03-16T05:37:20.856Z,100.00
2023-03-16T05:39:47.794Z,100.00
2023-03-16T05:42:14.580Z,100.00
2023-03-16T05:44:41.492Z,100.00
2023-03-16T05:47:08.498Z,100.00
2023-03-16T05:49:35.366Z,100.00
2023-03-16T05:52:02.375Z,100.00
2023-03-16T05:54:29.253Z,100.00
2023-03-16T05:56:56.047Z,100.00
2023-03-16T05:59:22.795Z,100.00
2023-03-16T06:01:50.218Z,100.00
2023-03-16T06:04:17.239Z,100.00
2023-03-16T06:06:44.255Z,100.00
2023-03-16T06:09:11.086Z,100.00
2023-03-16T06:11:38.065Z,100.00
2023-03-16T06:14:05.169Z,100.00
2023-03-16T06:16:32.144Z,100.00
2023-03-16T06:18:59.941Z,100.00
2023-03-16T06:21:27.271Z,100.00
2023-03-16T06:23:54.366Z,100.00
2023-03-16T06:26:21.444Z,100.00
2023-03-16T06:28:49.020Z,100.00
2023-03-16T06:31:22.061Z,100.00
2023-03-16T06:33:48.919Z,100.00
2023-03-16T06:36:16.122Z,100.00
2023-03-16T06:38:43.316Z,100.00
2023-03-16T06:41:10.173Z,100.00
2023-03-16T06:43:37.046Z,100.00
2023-03-16T06:46:04.725Z,100.00
2023-03-16T06:48:31.608Z,100.00
2023-03-16T06:50:58.476Z,100.00
2023-03-16T06:53:25.294Z,100.00
2023-03-16T06:55:52.089Z,100.00
2023-03-16T06:58:18.956Z,100.00
2023-03-16T07:00:45.840Z,100.00
2023-03-16T07:03:14.176Z,100.00
2023-03-16T07:05:40.997Z,100.00
2023-03-16T07:08:07.915Z,100.00
2023-03-16T07:10:38.019Z,100.00
2023-03-16T07:13:04.775Z,100.00
2023-03-16T07:15:31.912Z,100.00
2023-03-16T07:17:58.618Z,100.00
2023-03-16T07:20:26.924Z,100.00
2023-03-16T07:22:53.904Z,100.00
2023-03-16T07:25:21.453Z,100.00
2023-03-16T07:27:51.106Z,100.00
2023-03-16T07:30:18.769Z,100.00
2023-03-16T07:32:46.003Z,100.00
2023-03-16T07:35:13.938Z,100.00
2023-03-16T07:37:40.783Z,100.00
2023-03-16T07:40:09.178Z,100.00
2023-03-16T07:42:36.815Z,100.00
2023-03-16T07:45:05.667Z,100.00
2023-03-16T07:47:33.775Z,100.00
2023-03-16T07:50:01.211Z,100.00
2023-03-16T07:52:28.369Z,100.00
2023-03-16T07:54:55.790Z,100.00
2023-03-16T07:57:22.754Z,100.00
2023-03-16T07:59:50.055Z,100.00
2023-03-16T08:02:19.917Z,100.00
2023-03-16T08:04:47.436Z,100.00
2023-03-16T08:07:16.084Z,100.00
2023-03-16T08:09:43.681Z,100.00
2023-03-16T08:12:11.846Z,100.00
2023-03-16T08:14:39.185Z,100.00
2023-03-16T08:17:09.593Z,100.00
2023-03-16T08:19:36.360Z,100.00
2023-03-16T08:22:03.651Z,100.00
2023-03-16T08:24:32.689Z,99.50
2023-03-16T08:27:00.996Z,97.71
2023-03-16T08:29:34.319Z,95.10
2023-03-16T08:32:01.885Z,93.57
2023-03-16T08:34:28.807Z,92.01
2023-03-16T08:36:55.821Z,87.33
2023-03-16T08:39:22.682Z,86.56
2023-03-16T08:41:49.559Z,85.16
2023-03-16T08:44:17.367Z,85.11
2023-03-16T08:46:47.219Z,84.23
2023-03-16T08:49:14.781Z,82.61
2023-03-16T08:51:44.468Z,84.98
2023-03-16T08:54:12.403Z,79.53
2023-03-16T08:56:39.332Z,78.27
2023-03-16T08:59:06.613Z,77.00
2023-03-16T09:01:34.533Z,75.53
2023-03-16T09:04:01.290Z,74.89
2023-03-16T09:06:28.759Z,72.50
2023-03-16T09:08:56.628Z,71.78
2023-03-16T09:11:23.668Z,71.78
2023-03-16T09:13:52.893Z,71.33
2023-03-16T09:16:21.071Z,69.89
2023-03-16T09:18:48.039Z,68.45
2023-03-16T09:21:14.886Z,71.29
2023-03-16T09:23:42.858Z,68.87
2023-03-16T09:26:12.370Z,67.30
2023-03-16T09:28:42.094Z,67.00
2023-03-16T09:31:16.521Z,67.42
2023-03-16T09:33:43.521Z,67.74
2023-03-16T09:36:13.707Z,67.49
2023-03-16T09:38:42.239Z,67.02
2023-03-16T09:41:35.260Z,65.24
2023-03-16T09:44:23.632Z,65.88
2023-03-16T09:46:51.667Z,64.58
2023-03-16T09:49:36.093Z,67.43
2023-03-16T09:52:30.151Z,65.85
2023-03-16T09:55:07.982Z,62.61
2023-03-16T09:57:41.732Z,63.55
2023-03-16T10:00:41.834Z,62.01
2023-03-16T10:03:29.682Z,64.62
2023-03-16T10:06:02.096Z,61.75
2023-03-16T10:08:43.613Z,63.27
2023-03-16T10:11:34.244Z,60.62
2023-03-16T10:14:49.442Z,60.98
2023-03-16T10:17:38.561Z,59.03
2023-03-16T10:20:14.972Z,61.39
2023-03-16T10:22:47.915Z,61.39
2023-03-16T10:25:42.892Z,57.30
2023-03-16T10:28:24.120Z,58.70
2023-03-16T10:30:55.419Z,58.59
2023-03-16T10:33:27.231Z,55.66
2023-03-16T10:36:21.850Z,52.79
2023-03-16T10:39:00.007Z,54.88
2023-03-16T10:41:46.796Z,53.76
2023-03-16T10:44:15.639Z,50.62
2023-03-16T10:47:00.425Z,49.27
2023-03-16T10:49:49.017Z,50.00
2023-03-16T10:52:45.358Z,52.99
2023-03-16T10:55:23.313Z,48.62
2023-03-16T10:57:55.065Z,49.84
2023-03-16T11:00:30.941Z,48.37
2023-03-16T11:03:01.149Z,53.11
2023-03-16T11:05:34.678Z,47.12
2023-03-16T11:08:32.785Z,48.19
2023-03-16T11:11:27.200Z,48.31
2023-03-16T11:13:59.929Z,49.69
2023-03-16T11:16:57.933Z,44.84
2023-03-16T11:19:38.676Z,43.23
2023-03-16T11:22:25.301Z,42.20
2023-03-16T11:25:07.054Z,41.78
2023-03-16T11:27:40.520Z,41.33
2023-03-16T11:30:35.224Z,41.03
2023-03-16T11:33:02.090Z,39.14
2023-03-16T11:35:59.356Z,38.13
2023-03-16T11:38:45.027Z,37.12
2023-03-16T11:41:25.611Z,37.82
2023-03-16T11:43:56.777Z,37.96
2023-03-16T11:46:33.503Z,39.32
2023-03-16T11:49:21.515Z,38.96
2023-03-16T11:51:59.496Z,39.79
2023-03-16T11:54:55.062Z,38.24
2023-03-16T11:57:46.729Z,37.34
2023-03-16T12:00:44.924Z,35.94
2023-03-16T12:03:50.158Z,34.78
2023-03-16T12:06:43.339Z,34.70
2023-03-16T12:09:43.317Z,35.72
2023-03-16T12:12:34.417Z,35.37
2023-03-16T12:15:38.392Z,34.26
2023-03-16T12:18:54.464Z,34.55
2023-03-16T12:21:42.161Z,31.41
2023-03-16T12:24:20.259Z,29.92
2023-03-16T12:26:49.475Z,29.42
2023-03-16T12:29:26.277Z,27.16
2023-03-16T12:32:26.443Z,27.15
2023-03-16T12:35:34.998Z,26.81
2023-03-16T12:38:22.650Z,27.21
2023-03-16T12:41:00.043Z,27.40
2023-03-16T12:43:53.608Z,27.55
2023-03-16T12:46:47.795Z,26.50
2023-03-16T12:49:16.607Z,27.32
2023-03-16T12:51:44.082Z,26.91
2023-03-16T12:54:25.698Z,26.28
2023-03-16T12:57:06.826Z,26.12
2023-03-16T12:59:47.102Z,25.82
2023-03-16T13:02:26.244Z,25.94
2023-03-16T13:05:13.164Z,25.76
2023-03-16T13:08:03.490Z,26.67
2023-03-16T13:10:31.342Z,25.58
2023-03-16T13:13:13.740Z,26.10
2023-03-16T13:15:44.235Z,26.51
2023-03-16T13:18:16.964Z,26.79
2023-03-16T13:20:58.944Z,26.60
2023-03-16T13:23:52.115Z,26.15
2023-03-16T13:26:36.157Z,25.09
2023-03-16T13:29:27.756Z,25.51
2023-03-16T13:32:02.224Z,26.26
2023-03-16T13:34:35.245Z,26.43
2023-03-16T13:37:02.431Z,27.05
2023-03-16T13:39:32.128Z,26.25
2023-03-16T13:42:22.246Z,26.65
2023-03-16T13:44:53.880Z,26.49
2023-03-16T13:47:21.460Z,26.47
2023-03-16T13:49:54.626Z,26.34
2023-03-16T13:52:33.282Z,26.44
2023-03-16T13:55:16.158Z,26.61
2023-03-16T13:57:45.253Z,27.47
2023-03-16T14:00:25.275Z,26.69
2023-03-16T14:02:57.188Z,26.50
2023-03-16T14:05:33.075Z,26.63
2023-03-16T14:08:04.808Z,27.27
2023-03-16T14:10:36.757Z,28.50
2023-03-16T14:13:30.353Z,28.13
2023-03-16T14:16:01.395Z,28.46
2023-03-16T14:19:01.935Z,28.64
2023-03-16T14:21:34.251Z,28.43
2023-03-16T14:24:07.840Z,29.32
2023-03-16T14:26:46.290Z,29.28
2023-03-16T14:29:31.437Z,30.95
2023-03-16T14:32:00.007Z,31.18
2023-03-16T14:34:42.061Z,31.92
2023-03-16T14:37:19.326Z,32.00
2023-03-16T14:39:59.335Z,31.79
2023-03-16T14:42:31.522Z,31.75
2023-03-16T14:45:02.406Z,32.16
2023-03-16T14:47:33.531Z,33.03
2023-03-16T14:50:08.859Z,32.63
2023-03-16T14:52:37.143Z,33.40
2023-03-16T14:55:15.241Z,34.16
2023-03-16T14:57:45.058Z,34.47
2023-03-16T15:00:16.619Z,35.24
2023-03-16T15:02:54.388Z,35.37
2023-03-16T15:05:42.415Z,35.61
2023-03-16T15:08:37.162Z,36.68
2023-03-16T15:11:06.893Z,37.13
2023-03-16T15:13:40.073Z,36.79
2023-03-16T15:16:11.894Z,37.27
2023-03-16T15:18:41.794Z,37.71
2023-03-16T15:21:16.423Z,37.04
2023-03-16T15:23:45.244Z,36.55
2023-03-16T15:26:16.593Z,37.87
2023-03-16T15:28:43.373Z,37.91
2023-03-16T15:31:17.232Z,38.49
2023-03-16T15:33:45.510Z,37.99
2023-03-16T15:36:18.164Z,38.14
2023-03-16T15:38:49.149Z,38.98
2023-03-16T15:41:17.124Z,38.15
2023-03-16T15:43:46.238Z,38.06
2023-03-16T15:46:14.704Z,38.03
2023-03-16T15:48:41.651Z,38.14
2023-03-16T15:51:25.600Z,38.74
2023-03-16T15:54:01.782Z,39.33
2023-03-16T15:56:41.194Z,38.93
2023-03-16T15:59:18.566Z,39.43
2023-03-16T16:01:47.830Z,39.75
2023-03-16T16:04:23.511Z,41.05
2023-03-16T16:06:55.035Z,39.75
2023-03-16T16:09:22.732Z,41.10
2023-03-16T16:11:50.413Z,41.31
2023-03-16T16:14:24.855Z,40.47
2023-03-16T16:16:54.326Z,39.89
2023-03-16T16:19:23.763Z,40.93
2023-03-16T16:21:51.006Z,40.75
2023-03-16T16:24:18.386Z,40.42
2023-03-16T16:26:53.331Z,40.96
2023-03-16T16:29:34.104Z,41.50
2023-03-16T16:32:05.406Z,42.76
2023-03-16T16:34:32.211Z,42.74
2023-03-16T16:36:58.987Z,42.96
2023-03-16T16:39:27.453Z,43.94
2023-03-16T16:41:56.334Z,41.74
2023-03-16T16:44:30.450Z,41.83
2023-03-16T16:46:59.767Z,43.08
2023-03-16T16:49:30.637Z,43.80
2023-03-16T16:51:59.261Z,43.84
2023-03-16T16:54:30.137Z,45.31
2023-03-16T16:57:00.214Z,43.91
2023-03-16T16:59:36.792Z,46.47
2023-03-16T17:02:23.350Z,45.54
2023-03-16T17:04:50.801Z,47.13
2023-03-16T17:07:17.960Z,46.09
2023-03-16T17:09:45.115Z,46.62
2023-03-16T17:12:21.677Z,47.78
2023-03-16T17:14:50.401Z,46.88
2023-03-16T17:17:18.879Z,47.41
2023-03-16T17:19:48.369Z,47.65
2023-03-16T17:22:25.761Z,48.77
2023-03-16T17:24:53.919Z,48.46
2023-03-16T17:27:28.526Z,49.82
2023-03-16T17:29:57.634Z,50.68
2023-03-16T17:32:25.436Z,50.54
2023-03-16T17:34:52.318Z,51.26
2023-03-16T17:37:22.041Z,51.61
2023-03-16T17:39:49.390Z,52.42
2023-03-16T17:42:19.410Z,55.63
2023-03-16T17:44:50.690Z,57.69
2023-03-16T17:47:27.789Z,59.94
2023-03-16T17:49:55.228Z,61.20
2023-03-16T17:52:28.764Z,63.07
2023-03-16T17:54:56.050Z,63.15
2023-03-16T17:57:31.043Z,64.00
2023-03-16T18:00:00.792Z,64.92
2023-03-16T18:03:00.851Z,65.61
2023-03-16T18:05:34.691Z,66.20
2023-03-16T18:08:16.186Z,68.07
2023-03-16T18:10:49.530Z,68.58
2023-03-16T18:13:41.556Z,70.72
2023-03-16T18:16:09.076Z,69.57
2023-03-16T18:18:42.789Z,69.60
2023-03-16T18:21:23.404Z,70.00
2023-03-16T18:23:53.006Z,69.92
2023-03-16T18:26:23.891Z,71.02
2023-03-16T18:28:54.215Z,69.74
2023-03-16T18:31:26.318Z,70.00
2023-03-16T18:34:04.465Z,70.88
2023-03-16T18:36:40.973Z,72.00
2023-03-16T18:39:20.128Z,71.02
2023-03-16T18:41:47.152Z,73.14
2023-03-16T18:44:26.026Z,73.10
2023-03-16T18:47:02.635Z,71.48
2023-03-16T18:49:36.604Z,71.58
2023-03-16T18:52:12.726Z,71.26
2023-03-16T18:54:39.898Z,72.18
2023-03-16T18:57:20.348Z,71.85
2023-03-16T18:59:51.677Z,71.94
2023-03-16T19:02:50.231Z,70.29
2023-03-16T19:05:21.792Z,70.88
2023-03-16T19:07:54.026Z,71.60
2023-03-16T19:10:28.575Z,73.05
2023-03-16T19:12:56.103Z,72.72
2023-03-16T19:15:30.778Z,73.21
2023-03-16T19:17:59.975Z,69.18
2023-03-16T19:20:32.595Z,66.30
2023-03-16T19:23:16.279Z,68.03
2023-03-16T19:25:45.354Z,66.49
2023-03-16T19:28:42.637Z,65.79
2023-03-16T19:31:22.049Z,67.59
2023-03-16T19:33:51.867Z,67.46
2023-03-16T19:36:24.942Z,66.45
2023-03-16T19:38:52.610Z,65.84
2023-03-16T19:41:42.668Z,65.63
2023-03-16T19:44:27.240Z,64.78
2023-03-16T19:47:02.595Z,63.56
2023-03-16T19:49:30.609Z,63.26
2023-03-16T19:51:57.826Z,62.95
2023-03-16T19:54:33.319Z,63.32
2023-03-16T19:57:11.392Z,63.20
2023-03-16T19:59:38.589Z,63.50
2023-03-16T20:02:41.370Z,64.27
2023-03-16T20:05:22.399Z,63.56
2023-03-16T20:07:50.184Z,62.52
2023-03-16T20:10:25.195Z,63.82
2023-03-16T20:12:57.049Z,63.86
2023-03-16T20:15:34.022Z,63.74
2023-03-16T20:18:01.181Z,63.45
2023-03-16T20:20:33.580Z,64.18
2023-03-16T20:23:01.390Z,64.77
2023-03-16T20:25:35.287Z,64.63
2023-03-16T20:28:05.165Z,64.94
2023-03-16T20:30:35.309Z,65.20
2023-03-16T20:33:03.566Z,65.52
2023-03-16T20:35:32.925Z,66.12
2023-03-16T20:37:59.923Z,66.61
2023-03-16T20:40:29.475Z,66.82
2023-03-16T20:42:56.528Z,67.29
2023-03-16T20:45:30.530Z,66.81
2023-03-16T20:47:57.609Z,67.41
2023-03-16T20:50:30.688Z,68.17
2023-03-16T20:53:00.360Z,67.68
2023-03-16T20:55:29.200Z,67.39
2023-03-16T20:57:57.388Z,67.92
2023-03-16T21:00:47.405Z,67.73
2023-03-16T21:03:24.608Z,67.66
2023-03-16T21:05:53.709Z,67.60
2023-03-16T21:08:20.542Z,67.78
2023-03-16T21:10:51.752Z,67.78
2023-03-16T21:13:32.422Z,67.48
2023-03-16T21:16:03.379Z,66.94
2023-03-16T21:18:33.121Z,67.79
2023-03-16T21:21:02.901Z,68.24
2023-03-16T21:23:29.769Z,68.88
2023-03-16T21:26:01.607Z,68.30
2023-03-16T21:28:36.522Z,68.71
2023-03-16T21:31:07.998Z,69.08
2023-03-16T21:33:38.870Z,68.66
2023-03-16T21:36:17.042Z,68.54
2023-03-16T21:38:46.752Z,68.35
2023-03-16T21:41:15.233Z,68.33
2023-03-16T21:43:43.230Z,67.54
2023-03-16T21:46:23.291Z,68.15
2023-03-16T21:48:58.001Z,66.75
2023-03-16T21:51:34.740Z,66.74
2023-03-16T21:54:01.630Z,67.18
2023-03-16T21:56:28.945Z,67.76
2023-03-16T21:58:55.990Z,68.88
2023-03-16T22:01:38.255Z,67.80
2023-03-16T22:04:16.033Z,68.24
2023-03-16T22:06:45.948Z,67.65
2023-03-16T22:09:22.358Z,68.24
2023-03-16T22:11:49.687Z,65.42
2023-03-16T22:14:16.464Z,65.93
2023-03-16T22:16:43.702Z,66.55
2023-03-16T22:19:14.609Z,65.98
2023-03-16T22:21:44.958Z,66.27
2023-03-16T22:24:26.362Z,67.50
2023-03-16T22:26:53.721Z,67.58
2023-03-16T22:29:36.528Z,67.51
2023-03-16T22:32:20.842Z,68.25
2023-03-16T22:34:56.388Z,67.92
2023-03-16T22:37:27.425Z,67.68
2023-03-16T22:39:57.203Z,68.36
2023-03-16T22:42:37.892Z,66.37
2023-03-16T22:45:26.497Z,66.66
2023-03-16T22:47:55.945Z,67.10
2023-03-16T22:50:27.380Z,65.38
2023-03-16T22:52:59.682Z,65.74
2023-03-16T22:55:38.403Z,65.29
2023-03-16T22:58:15.353Z,66.15
2023-03-16T23:00:42.753Z,66.04
2023-03-16T23:03:24.563Z,66.79
2023-03-16T23:05:51.654Z,67.51
2023-03-16T23:08:23.343Z,67.82
2023-03-16T23:10:55.701Z,68.09
2023-03-16T23:13:28.918Z,67.41
2023-03-16T23:15:56.763Z,67.74
2023-03-16T23:18:25.982Z,68.42
2023-03-16T23:20:53.522Z,68.10
2023-03-16T23:23:22.564Z,68.16
2023-03-16T23:25:49.443Z,68.51
2023-03-16T23:28:24.483Z,68.64
2023-03-16T23:30:51.573Z,68.08
2023-03-16T23:33:21.719Z,68.84
2023-03-16T23:35:48.609Z,69.07
2023-03-16T23:38:15.430Z,69.20
2023-03-16T23:40:42.228Z,70.16
2023-03-16T23:43:09.457Z,70.98
2023-03-16T23:45:46.476Z,71.32
2023-03-16T23:48:20.982Z,72.21
2023-03-16T23:50:52.131Z,72.51
2023-03-16T23:53:20.408Z,72.69
2023-03-16T23:55:48.080Z,73.03
2023-03-16T23:58:18.639Z,73.56
